Watertown International Airport Watertown US
ICAO: KART
IATA: ART
Category: Medium
Scheduled Services: Yes

Elevation: 325 ft
TransAlt. 18000 ft.

Airport Communications:
WHEELER SACK APP/DEP:128.25
ASOS:133.525
BURLINGTON RDO:122.2
CTAF/UNICOM:123

KART Zoom In..

Runways:

(A) RW 07 length 4999 ft width 150 ft
ILS 111.10 / hdg 65

(B) RW 10 length 5999 ft width 150 ft
---- / hdg 105

(C) RW 25 length 4999 ft width 150 ft
---- / hdg 245

(D) RW 28 length 5999 ft width 150 ft
---- / hdg 285

Location; KART
Day. 25 / Time. 12.56 Zulu
* Altimeter: 30.11
* Temperature: 04° c. 39.2°f.
* Wind from: 160° Speed 13 kn with Gusts up to 21 kn.
Dewpoint: -03° c.
Visibility: 10 Statute Miles.
Clouds: Few 9000 ft.

KART 251256Z AUTO 16013G21KT 10SM FEW090 04/M03 A3011 RMK AO2 SLP200 T00441028 $

Going to: --> -->


Wind From 160°
Speed 13 kn.

 
 
jpsmedia worldairports.se 2020   terms of use